sensor_id;sensor_type;location;lat;lon;timestamp;P1;durP1;ratioP1;P2;durP2;ratioP2
74465;SDS011;62916;50.044;15.938;2024-02-23T00:00:18;3.00;;;2.60;;
74465;SDS011;62916;50.044;15.938;2024-02-23T00:02:49;3.60;;;2.30;;
74465;SDS011;62916;50.044;15.938;2024-02-23T00:05:21;3.50;;;2.60;;
74465;SDS011;62916;50.044;15.938;2024-02-23T00:07:52;2.60;;;2.40;;
74465;SDS011;62916;50.044;15.938;2024-02-23T00:10:23;2.80;;;2.40;;
74465;SDS011;62916;50.044;15.938;2024-02-23T00:12:54;3.00;;;2.50;;
74465;SDS011;62916;50.044;15.938;2024-02-23T00:15:25;3.70;;;3.10;;
74465;SDS011;62916;50.044;15.938;2024-02-23T00:17:55;3.00;;;2.50;;
74465;SDS011;62916;50.044;15.938;2024-02-23T00:20:27;3.30;;;3.00;;
74465;SDS011;62916;50.044;15.938;2024-02-23T00:22:57;3.50;;;3.00;;
74465;SDS011;62916;50.044;15.938;2024-02-23T00:25:28;3.10;;;2.70;;
74465;SDS011;62916;50.044;15.938;2024-02-23T00:27:59;3.20;;;2.90;;
74465;SDS011;62916;50.044;15.938;2024-02-23T00:30:30;3.20;;;2.60;;
74465;SDS011;62916;50.044;15.938;2024-02-23T00:33:02;3.40;;;2.60;;
74465;SDS011;62916;50.044;15.938;2024-02-23T00:35:34;3.50;;;2.70;;
74465;SDS011;62916;50.044;15.938;2024-02-23T00:38:05;4.90;;;3.70;;
74465;SDS011;62916;50.044;15.938;2024-02-23T00:40:37;4.60;;;4.20;;
74465;SDS011;62916;50.044;15.938;2024-02-23T00:43:07;5.30;;;3.90;;
74465;SDS011;62916;50.044;15.938;2024-02-23T00:45:38;5.20;;;4.30;;
74465;SDS011;62916;50.044;15.938;2024-02-23T00:48:09;5.50;;;3.90;;
74465;SDS011;62916;50.044;15.938;2024-02-23T00:50:41;4.70;;;4.00;;
74465;SDS011;62916;50.044;15.938;2024-02-23T00:53:12;6.90;;;4.50;;
74465;SDS011;62916;50.044;15.938;2024-02-23T00:55:43;5.10;;;4.40;;
74465;SDS011;62916;50.044;15.938;2024-02-23T00:58:14;5.90;;;4.70;;
74465;SDS011;62916;50.044;15.938;2024-02-23T01:00:45;5.00;;;4.30;;
74465;SDS011;62916;50.044;15.938;2024-02-23T01:03:15;5.80;;;4.60;;
74465;SDS011;62916;50.044;15.938;2024-02-23T01:05:46;5.20;;;4.30;;
74465;SDS011;62916;50.044;15.938;2024-02-23T01:08:17;5.70;;;4.20;;
74465;SDS011;62916;50.044;15.938;2024-02-23T01:10:49;4.60;;;3.90;;
74465;SDS011;62916;50.044;15.938;2024-02-23T01:13:20;5.20;;;4.00;;
74465;SDS011;62916;50.044;15.938;2024-02-23T01:15:50;5.10;;;4.10;;
74465;SDS011;62916;50.044;15.938;2024-02-23T01:18:21;5.60;;;3.80;;
74465;SDS011;62916;50.044;15.938;2024-02-23T01:20:52;4.40;;;3.70;;
74465;SDS011;62916;50.044;15.938;2024-02-23T01:23:25;4.90;;;4.00;;
74465;SDS011;62916;50.044;15.938;2024-02-23T01:25:56;4.10;;;3.70;;
74465;SDS011;62916;50.044;15.938;2024-02-23T01:28:28;3.80;;;3.40;;
74465;SDS011;62916;50.044;15.938;2024-02-23T01:30:59;4.20;;;3.70;;
74465;SDS011;62916;50.044;15.938;2024-02-23T01:33:30;4.40;;;3.50;;
74465;SDS011;62916;50.044;15.938;2024-02-23T01:36:01;4.90;;;3.40;;
74465;SDS011;62916;50.044;15.938;2024-02-23T01:38:32;4.70;;;3.50;;
74465;SDS011;62916;50.044;15.938;2024-02-23T01:41:03;3.70;;;3.10;;
74465;SDS011;62916;50.044;15.938;2024-02-23T01:43:34;3.80;;;3.00;;
74465;SDS011;62916;50.044;15.938;2024-02-23T01:46:05;3.40;;;2.70;;
74465;SDS011;62916;50.044;15.938;2024-02-23T01:48:37;3.60;;;3.00;;
74465;SDS011;62916;50.044;15.938;2024-02-23T01:51:08;3.50;;;3.10;;
74465;SDS011;62916;50.044;15.938;2024-02-23T01:53:40;3.10;;;2.80;;
74465;SDS011;62916;50.044;15.938;2024-02-23T01:56:12;3.80;;;2.80;;
74465;SDS011;62916;50.044;15.938;2024-02-23T01:58:47;2.60;;;2.40;;
74465;SDS011;62916;50.044;15.938;2024-02-23T02:01:18;3.30;;;2.60;;
74465;SDS011;62916;50.044;15.938;2024-02-23T02:03:49;3.80;;;2.80;;
74465;SDS011;62916;50.044;15.938;2024-02-23T02:06:21;3.30;;;2.80;;
74465;SDS011;62916;50.044;15.938;2024-02-23T02:08:52;4.30;;;2.60;;
74465;SDS011;62916;50.044;15.938;2024-02-23T02:11:23;3.10;;;2.80;;
74465;SDS011;62916;50.044;15.938;2024-02-23T02:13:54;3.50;;;2.60;;
74465;SDS011;62916;50.044;15.938;2024-02-23T02:16:25;3.10;;;2.50;;
74465;SDS011;62916;50.044;15.938;2024-02-23T02:18:56;3.50;;;2.50;;
74465;SDS011;62916;50.044;15.938;2024-02-23T02:21:27;2.90;;;2.50;;
74465;SDS011;62916;50.044;15.938;2024-02-23T02:23:58;3.10;;;2.60;;
74465;SDS011;62916;50.044;15.938;2024-02-23T02:26:29;3.20;;;2.50;;
74465;SDS011;62916;50.044;15.938;2024-02-23T02:29:01;2.50;;;2.30;;
74465;SDS011;62916;50.044;15.938;2024-02-23T02:31:31;3.10;;;2.60;;
74465;SDS011;62916;50.044;15.938;2024-02-23T02:34:05;2.50;;;2.10;;
74465;SDS011;62916;50.044;15.938;2024-02-23T02:36:36;2.50;;;2.00;;
74465;SDS011;62916;50.044;15.938;2024-02-23T02:39:09;2.60;;;2.30;;
74465;SDS011;62916;50.044;15.938;2024-02-23T02:41:40;4.70;;;2.10;;
74465;SDS011;62916;50.044;15.938;2024-02-23T02:44:11;2.50;;;2.30;;
74465;SDS011;62916;50.044;15.938;2024-02-23T02:46:42;3.00;;;2.00;;
74465;SDS011;62916;50.044;15.938;2024-02-23T02:49:14;3.20;;;2.40;;
74465;SDS011;62916;50.044;15.938;2024-02-23T02:51:44;3.30;;;2.50;;
74465;SDS011;62916;50.044;15.938;2024-02-23T02:54:15;2.80;;;2.30;;
74465;SDS011;62916;50.044;15.938;2024-02-23T02:56:46;2.50;;;2.10;;
74465;SDS011;62916;50.044;15.938;2024-02-23T02:59:18;2.40;;;1.90;;
74465;SDS011;62916;50.044;15.938;2024-02-23T03:01:53;2.90;;;2.20;;
74465;SDS011;62916;50.044;15.938;2024-02-23T03:04:25;2.80;;;2.10;;
74465;SDS011;62916;50.044;15.938;2024-02-23T03:06:56;2.60;;;2.10;;
74465;SDS011;62916;50.044;15.938;2024-02-23T03:09:27;2.00;;;1.70;;
74465;SDS011;62916;50.044;15.938;2024-02-23T03:11:58;2.90;;;2.50;;
74465;SDS011;62916;50.044;15.938;2024-02-23T03:14:29;3.20;;;2.30;;
74465;SDS011;62916;50.044;15.938;2024-02-23T03:17:05;3.00;;;2.50;;
74465;SDS011;62916;50.044;15.938;2024-02-23T03:19:37;2.70;;;2.00;;
74465;SDS011;62916;50.044;15.938;2024-02-23T03:22:08;2.40;;;2.00;;
74465;SDS011;62916;50.044;15.938;2024-02-23T03:24:39;2.70;;;2.10;;
74465;SDS011;62916;50.044;15.938;2024-02-23T03:27:10;2.40;;;2.10;;
74465;SDS011;62916;50.044;15.938;2024-02-23T03:29:41;2.90;;;2.40;;
74465;SDS011;62916;50.044;15.938;2024-02-23T03:32:12;3.20;;;2.40;;
74465;SDS011;62916;50.044;15.938;2024-02-23T03:34:43;2.70;;;2.20;;
74465;SDS011;62916;50.044;15.938;2024-02-23T03:37:13;2.60;;;2.20;;
74465;SDS011;62916;50.044;15.938;2024-02-23T03:39:46;2.50;;;2.30;;
74465;SDS011;62916;50.044;15.938;2024-02-23T03:42:17;2.40;;;2.20;;
74465;SDS011;62916;50.044;15.938;2024-02-23T03:44:48;3.70;;;2.80;;
74465;SDS011;62916;50.044;15.938;2024-02-23T03:47:19;3.90;;;2.90;;
74465;SDS011;62916;50.044;15.938;2024-02-23T03:49:50;2.70;;;2.10;;
74465;SDS011;62916;50.044;15.938;2024-02-23T03:52:21;2.80;;;2.20;;
74465;SDS011;62916;50.044;15.938;2024-02-23T03:54:52;4.60;;;2.50;;
74465;SDS011;62916;50.044;15.938;2024-02-23T03:57:22;2.90;;;2.60;;
74465;SDS011;62916;50.044;15.938;2024-02-23T03:59:53;3.30;;;2.90;;
74465;SDS011;62916;50.044;15.938;2024-02-23T04:02:24;3.70;;;2.60;;
74465;SDS011;62916;50.044;15.938;2024-02-23T04:04:55;3.40;;;2.80;;
74465;SDS011;62916;50.044;15.938;2024-02-23T04:07:26;3.10;;;2.50;;
74465;SDS011;62916;50.044;15.938;2024-02-23T04:09:57;2.50;;;2.30;;
74465;SDS011;62916;50.044;15.938;2024-02-23T04:12:28;2.00;;;1.60;;
74465;SDS011;62916;50.044;15.938;2024-02-23T04:14:59;3.10;;;1.90;;
74465;SDS011;62916;50.044;15.938;2024-02-23T04:17:30;2.20;;;1.90;;
74465;SDS011;62916;50.044;15.938;2024-02-23T04:20:04;2.30;;;1.80;;
74465;SDS011;62916;50.044;15.938;2024-02-23T04:22:38;2.20;;;1.70;;
74465;SDS011;62916;50.044;15.938;2024-02-23T04:25:09;2.70;;;1.70;;
74465;SDS011;62916;50.044;15.938;2024-02-23T04:27:39;1.90;;;1.50;;
74465;SDS011;62916;50.044;15.938;2024-02-23T04:30:11;2.70;;;1.80;;
74465;SDS011;62916;50.044;15.938;2024-02-23T04:32:43;1.90;;;1.20;;
74465;SDS011;62916;50.044;15.938;2024-02-23T04:35:14;2.10;;;1.40;;
74465;SDS011;62916;50.044;15.938;2024-02-23T04:37:45;1.50;;;1.20;;
74465;SDS011;62916;50.044;15.938;2024-02-23T04:40:18;1.50;;;1.40;;
74465;SDS011;62916;50.044;15.938;2024-02-23T04:42:48;1.90;;;1.50;;
74465;SDS011;62916;50.044;15.938;2024-02-23T04:45:19;2.10;;;1.30;;
74465;SDS011;62916;50.044;15.938;2024-02-23T04:47:51;1.70;;;1.50;;
74465;SDS011;62916;50.044;15.938;2024-02-23T04:50:22;1.50;;;1.10;;
74465;SDS011;62916;50.044;15.938;2024-02-23T04:52:53;1.40;;;1.10;;
74465;SDS011;62916;50.044;15.938;2024-02-23T04:55:24;1.70;;;1.20;;
74465;SDS011;62916;50.044;15.938;2024-02-23T04:57:54;1.70;;;1.20;;
74465;SDS011;62916;50.044;15.938;2024-02-23T05:00:25;1.40;;;1.30;;
74465;SDS011;62916;50.044;15.938;2024-02-23T05:03:01;1.80;;;1.30;;
74465;SDS011;62916;50.044;15.938;2024-02-23T05:05:32;1.70;;;1.30;;
74465;SDS011;62916;50.044;15.938;2024-02-23T05:08:05;1.20;;;1.10;;
74465;SDS011;62916;50.044;15.938;2024-02-23T05:10:36;2.10;;;1.40;;
74465;SDS011;62916;50.044;15.938;2024-02-23T05:13:06;6.70;;;2.30;;
74465;SDS011;62916;50.044;15.938;2024-02-23T05:15:37;15.00;;;2.30;;
74465;SDS011;62916;50.044;15.938;2024-02-23T05:18:13;15.90;;;2.90;;
74465;SDS011;62916;50.044;15.938;2024-02-23T05:20:43;29.20;;;4.00;;
74465;SDS011;62916;50.044;15.938;2024-02-23T05:23:14;11.10;;;2.30;;
74465;SDS011;62916;50.044;15.938;2024-02-23T05:25:48;19.80;;;3.30;;
74465;SDS011;62916;50.044;15.938;2024-02-23T05:28:19;15.70;;;2.70;;
74465;SDS011;62916;50.044;15.938;2024-02-23T05:30:49;15.50;;;2.70;;
74465;SDS011;62916;50.044;15.938;2024-02-23T05:33:20;16.40;;;2.70;;
74465;SDS011;62916;50.044;15.938;2024-02-23T05:35:52;13.20;;;2.50;;
74465;SDS011;62916;50.044;15.938;2024-02-23T05:38:23;15.40;;;2.40;;
74465;SDS011;62916;50.044;15.938;2024-02-23T05:40:54;12.90;;;2.20;;
74465;SDS011;62916;50.044;15.938;2024-02-23T05:43:24;17.50;;;2.60;;
74465;SDS011;62916;50.044;15.938;2024-02-23T05:45:55;14.80;;;1.90;;
74465;SDS011;62916;50.044;15.938;2024-02-23T05:48:26;14.60;;;2.80;;
74465;SDS011;62916;50.044;15.938;2024-02-23T05:50:57;11.70;;;1.90;;
74465;SDS011;62916;50.044;15.938;2024-02-23T05:53:28;11.50;;;3.10;;
74465;SDS011;62916;50.044;15.938;2024-02-23T05:56:01;8.70;;;1.90;;
74465;SDS011;62916;50.044;15.938;2024-02-23T05:58:32;11.80;;;1.90;;
74465;SDS011;62916;50.044;15.938;2024-02-23T06:01:04;9.20;;;2.50;;
74465;SDS011;62916;50.044;15.938;2024-02-23T06:03:35;10.40;;;1.50;;
74465;SDS011;62916;50.044;15.938;2024-02-23T06:06:08;6.90;;;2.20;;
74465;SDS011;62916;50.044;15.938;2024-02-23T06:08:39;10.80;;;1.60;;
74465;SDS011;62916;50.044;15.938;2024-02-23T06:11:10;8.70;;;2.10;;
74465;SDS011;62916;50.044;15.938;2024-02-23T06:13:41;7.40;;;1.70;;
74465;SDS011;62916;50.044;15.938;2024-02-23T06:16:12;12.10;;;1.90;;
74465;SDS011;62916;50.044;15.938;2024-02-23T06:18:43;9.10;;;2.40;;
74465;SDS011;62916;50.044;15.938;2024-02-23T06:21:14;3.20;;;1.30;;
74465;SDS011;62916;50.044;15.938;2024-02-23T06:23:46;6.60;;;1.60;;
74465;SDS011;62916;50.044;15.938;2024-02-23T06:26:17;7.70;;;1.50;;
74465;SDS011;62916;50.044;15.938;2024-02-23T06:28:48;8.40;;;1.80;;
74465;SDS011;62916;50.044;15.938;2024-02-23T06:31:19;8.60;;;1.90;;
74465;SDS011;62916;50.044;15.938;2024-02-23T06:33:50;7.00;;;1.70;;
74465;SDS011;62916;50.044;15.938;2024-02-23T06:36:21;10.40;;;2.10;;
74465;SDS011;62916;50.044;15.938;2024-02-23T06:38:52;4.00;;;1.60;;
74465;SDS011;62916;50.044;15.938;2024-02-23T06:41:22;5.40;;;1.50;;
74465;SDS011;62916;50.044;15.938;2024-02-23T06:43:54;6.90;;;1.40;;
74465;SDS011;62916;50.044;15.938;2024-02-23T06:46:25;6.80;;;1.20;;
74465;SDS011;62916;50.044;15.938;2024-02-23T06:48:56;4.10;;;1.30;;
74465;SDS011;62916;50.044;15.938;2024-02-23T06:51:27;7.20;;;1.40;;
74465;SDS011;62916;50.044;15.938;2024-02-23T06:53:58;4.50;;;1.30;;
74465;SDS011;62916;50.044;15.938;2024-02-23T06:56:29;6.20;;;1.50;;
74465;SDS011;62916;50.044;15.938;2024-02-23T06:58:59;4.20;;;1.50;;
74465;SDS011;62916;50.044;15.938;2024-02-23T07:01:30;7.10;;;1.60;;
74465;SDS011;62916;50.044;15.938;2024-02-23T07:04:07;5.60;;;1.40;;
74465;SDS011;62916;50.044;15.938;2024-02-23T07:06:38;4.00;;;1.50;;
74465;SDS011;62916;50.044;15.938;2024-02-23T07:09:09;3.70;;;1.00;;
74465;SDS011;62916;50.044;15.938;2024-02-23T07:11:40;3.70;;;1.50;;
74465;SDS011;62916;50.044;15.938;2024-02-23T07:14:12;4.50;;;1.20;;
74465;SDS011;62916;50.044;15.938;2024-02-23T07:16:44;5.70;;;1.30;;
74465;SDS011;62916;50.044;15.938;2024-02-23T07:19:15;3.60;;;1.20;;
74465;SDS011;62916;50.044;15.938;2024-02-23T07:21:47;5.70;;;1.20;;
74465;SDS011;62916;50.044;15.938;2024-02-23T07:24:18;3.90;;;1.20;;
74465;SDS011;62916;50.044;15.938;2024-02-23T07:26:49;3.60;;;1.40;;
74465;SDS011;62916;50.044;15.938;2024-02-23T07:29:20;4.60;;;1.20;;
74465;SDS011;62916;50.044;15.938;2024-02-23T07:31:51;4.00;;;1.50;;
74465;SDS011;62916;50.044;15.938;2024-02-23T07:34:24;2.90;;;0.90;;
74465;SDS011;62916;50.044;15.938;2024-02-23T07:36:55;6.50;;;1.20;;
74465;SDS011;62916;50.044;15.938;2024-02-23T07:39:26;2.90;;;1.20;;
74465;SDS011;62916;50.044;15.938;2024-02-23T07:41:56;4.50;;;1.40;;
74465;SDS011;62916;50.044;15.938;2024-02-23T07:44:27;3.30;;;1.10;;
74465;SDS011;62916;50.044;15.938;2024-02-23T07:46:58;3.20;;;1.10;;
74465;SDS011;62916;50.044;15.938;2024-02-23T07:49:30;3.00;;;1.00;;
74465;SDS011;62916;50.044;15.938;2024-02-23T07:52:01;5.80;;;1.40;;
74465;SDS011;62916;50.044;15.938;2024-02-23T07:54:33;4.00;;;0.90;;
74465;SDS011;62916;50.044;15.938;2024-02-23T07:57:05;2.30;;;1.10;;
74465;SDS011;62916;50.044;15.938;2024-02-23T07:59:36;1.90;;;0.90;;
74465;SDS011;62916;50.044;15.938;2024-02-23T08:02:07;3.10;;;0.90;;
74465;SDS011;62916;50.044;15.938;2024-02-23T08:04:37;1.80;;;0.90;;
74465;SDS011;62916;50.044;15.938;2024-02-23T08:07:08;4.60;;;1.10;;
74465;SDS011;62916;50.044;15.938;2024-02-23T08:09:39;3.70;;;1.10;;
74465;SDS011;62916;50.044;15.938;2024-02-23T08:12:10;3.50;;;1.50;;
74465;SDS011;62916;50.044;15.938;2024-02-23T08:14:42;2.40;;;0.80;;
74465;SDS011;62916;50.044;15.938;2024-02-23T08:17:13;1.70;;;1.10;;
74465;SDS011;62916;50.044;15.938;2024-02-23T08:19:44;1.70;;;0.80;;
74465;SDS011;62916;50.044;15.938;2024-02-23T08:22:15;3.50;;;0.90;;
74465;SDS011;62916;50.044;15.938;2024-02-23T08:24:46;2.70;;;0.90;;
74465;SDS011;62916;50.044;15.938;2024-02-23T08:27:16;3.40;;;1.40;;
74465;SDS011;62916;50.044;15.938;2024-02-23T08:29:47;4.40;;;0.90;;
74465;SDS011;62916;50.044;15.938;2024-02-23T08:32:18;4.70;;;1.30;;
74465;SDS011;62916;50.044;15.938;2024-02-23T08:34:49;1.40;;;0.80;;
74465;SDS011;62916;50.044;15.938;2024-02-23T08:37:27;2.70;;;0.80;;
74465;SDS011;62916;50.044;15.938;2024-02-23T08:39:59;3.20;;;1.00;;
74465;SDS011;62916;50.044;15.938;2024-02-23T08:42:31;1.80;;;0.90;;
74465;SDS011;62916;50.044;15.938;2024-02-23T08:45:03;3.10;;;0.90;;
74465;SDS011;62916;50.044;15.938;2024-02-23T08:47:35;2.90;;;0.70;;
74465;SDS011;62916;50.044;15.938;2024-02-23T08:50:08;2.40;;;0.80;;
74465;SDS011;62916;50.044;15.938;2024-02-23T08:52:39;2.10;;;0.90;;
74465;SDS011;62916;50.044;15.938;2024-02-23T08:55:10;2.50;;;0.80;;
74465;SDS011;62916;50.044;15.938;2024-02-23T08:57:41;1.00;;;0.60;;
74465;SDS011;62916;50.044;15.938;2024-02-23T09:00:13;1.30;;;0.50;;
74465;SDS011;62916;50.044;15.938;2024-02-23T09:02:45;2.70;;;0.70;;
74465;SDS011;62916;50.044;15.938;2024-02-23T09:05:17;2.30;;;0.90;;
74465;SDS011;62916;50.044;15.938;2024-02-23T09:07:49;2.40;;;0.80;;
74465;SDS011;62916;50.044;15.938;2024-02-23T09:10:21;3.00;;;0.80;;
74465;SDS011;62916;50.044;15.938;2024-02-23T09:12:52;1.80;;;0.90;;
74465;SDS011;62916;50.044;15.938;2024-02-23T09:15:23;1.70;;;0.70;;
74465;SDS011;62916;50.044;15.938;2024-02-23T09:17:53;1.20;;;0.60;;
74465;SDS011;62916;50.044;15.938;2024-02-23T09:20:27;1.90;;;1.00;;
74465;SDS011;62916;50.044;15.938;2024-02-23T09:22:59;2.30;;;1.00;;
74465;SDS011;62916;50.044;15.938;2024-02-23T09:25:29;1.20;;;0.50;;
74465;SDS011;62916;50.044;15.938;2024-02-23T09:28:00;1.90;;;0.60;;
74465;SDS011;62916;50.044;15.938;2024-02-23T09:30:31;1.30;;;0.90;;
74465;SDS011;62916;50.044;15.938;2024-02-23T09:33:02;1.80;;;0.80;;
74465;SDS011;62916;50.044;15.938;2024-02-23T09:35:34;0.80;;;0.60;;
74465;SDS011;62916;50.044;15.938;2024-02-23T09:38:05;1.10;;;0.60;;
74465;SDS011;62916;50.044;15.938;2024-02-23T09:40:36;1.90;;;0.90;;
74465;SDS011;62916;50.044;15.938;2024-02-23T09:43:07;0.90;;;0.50;;
74465;SDS011;62916;50.044;15.938;2024-02-23T09:45:40;2.50;;;0.90;;
74465;SDS011;62916;50.044;15.938;2024-02-23T09:48:11;1.20;;;0.70;;
74465;SDS011;62916;50.044;15.938;2024-02-23T09:50:43;0.90;;;0.80;;
74465;SDS011;62916;50.044;15.938;2024-02-23T09:53:16;2.20;;;0.80;;
74465;SDS011;62916;50.044;15.938;2024-02-23T09:55:49;1.90;;;0.70;;
74465;SDS011;62916;50.044;15.938;2024-02-23T09:58:22;1.30;;;0.70;;
74465;SDS011;62916;50.044;15.938;2024-02-23T10:00:54;1.30;;;0.60;;
74465;SDS011;62916;50.044;15.938;2024-02-23T10:03:27;2.00;;;0.60;;
74465;SDS011;62916;50.044;15.938;2024-02-23T10:05:59;2.20;;;0.70;;
74465;SDS011;62916;50.044;15.938;2024-02-23T10:08:30;0.90;;;0.70;;
74465;SDS011;62916;50.044;15.938;2024-02-23T10:11:01;1.60;;;0.60;;
74465;SDS011;62916;50.044;15.938;2024-02-23T10:13:33;0.90;;;0.70;;
74465;SDS011;62916;50.044;15.938;2024-02-23T10:16:05;1.20;;;0.60;;
74465;SDS011;62916;50.044;15.938;2024-02-23T10:18:42;1.20;;;0.50;;
74465;SDS011;62916;50.044;15.938;2024-02-23T10:21:15;1.50;;;0.80;;
74465;SDS011;62916;50.044;15.938;2024-02-23T10:23:46;1.50;;;0.80;;
74465;SDS011;62916;50.044;15.938;2024-02-23T10:28:51;2.20;;;0.60;;
74465;SDS011;62916;50.044;15.938;2024-02-23T10:31:22;0.50;;;0.40;;
74465;SDS011;62916;50.044;15.938;2024-02-23T10:33:53;0.70;;;0.70;;
74465;SDS011;62916;50.044;15.938;2024-02-23T10:36:26;1.10;;;0.70;;
74465;SDS011;62916;50.044;15.938;2024-02-23T10:39:01;0.80;;;0.60;;
74465;SDS011;62916;50.044;15.938;2024-02-23T10:41:34;1.30;;;0.60;;
74465;SDS011;62916;50.044;15.938;2024-02-23T10:44:06;1.40;;;0.70;;
74465;SDS011;62916;50.044;15.938;2024-02-23T10:46:38;1.30;;;0.60;;
74465;SDS011;62916;50.044;15.938;2024-02-23T10:49:09;1.90;;;0.60;;
74465;SDS011;62916;50.044;15.938;2024-02-23T10:51:44;1.30;;;0.60;;
74465;SDS011;62916;50.044;15.938;2024-02-23T10:54:17;0.90;;;0.50;;
74465;SDS011;62916;50.044;15.938;2024-02-23T10:56:50;1.40;;;0.60;;
74465;SDS011;62916;50.044;15.938;2024-02-23T10:59:24;2.30;;;0.60;;
74465;SDS011;62916;50.044;15.938;2024-02-23T11:01:55;2.10;;;0.80;;
74465;SDS011;62916;50.044;15.938;2024-02-23T11:04:28;0.80;;;0.40;;
74465;SDS011;62916;50.044;15.938;2024-02-23T11:07:01;0.70;;;0.70;;
74465;SDS011;62916;50.044;15.938;2024-02-23T11:09:35;1.40;;;0.70;;
74465;SDS011;62916;50.044;15.938;2024-02-23T11:12:07;0.80;;;0.50;;
74465;SDS011;62916;50.044;15.938;2024-02-23T11:14:38;1.10;;;0.50;;
74465;SDS011;62916;50.044;15.938;2024-02-23T11:17:18;1.20;;;0.70;;
74465;SDS011;62916;50.044;15.938;2024-02-23T11:19:50;1.30;;;0.50;;
74465;SDS011;62916;50.044;15.938;2024-02-23T11:22:26;0.80;;;0.50;;
74465;SDS011;62916;50.044;15.938;2024-02-23T11:25:06;1.20;;;0.50;;
74465;SDS011;62916;50.044;15.938;2024-02-23T11:27:39;0.60;;;0.50;;
74465;SDS011;62916;50.044;15.938;2024-02-23T11:30:12;2.70;;;0.50;;
74465;SDS011;62916;50.044;15.938;2024-02-23T11:32:47;0.90;;;0.50;;
74465;SDS011;62916;50.044;15.938;2024-02-23T11:35:25;1.70;;;0.60;;
74465;SDS011;62916;50.044;15.938;2024-02-23T11:37:56;0.40;;;0.40;;
74465;SDS011;62916;50.044;15.938;2024-02-23T11:40:32;0.60;;;0.50;;
74465;SDS011;62916;50.044;15.938;2024-02-23T11:43:04;0.90;;;0.60;;
74465;SDS011;62916;50.044;15.938;2024-02-23T11:45:36;0.80;;;0.70;;
74465;SDS011;62916;50.044;15.938;2024-02-23T11:48:08;4.90;;;1.20;;
74465;SDS011;62916;50.044;15.938;2024-02-23T11:50:38;16.60;;;1.70;;
74465;SDS011;62916;50.044;15.938;2024-02-23T11:53:09;16.60;;;2.50;;
74465;SDS011;62916;50.044;15.938;2024-02-23T11:55:40;19.30;;;1.90;;
74465;SDS011;62916;50.044;15.938;2024-02-23T11:58:11;10.40;;;1.40;;
74465;SDS011;62916;50.044;15.938;2024-02-23T12:00:46;9.50;;;1.60;;
74465;SDS011;62916;50.044;15.938;2024-02-23T12:03:17;13.80;;;2.00;;
74465;SDS011;62916;50.044;15.938;2024-02-23T12:05:50;9.00;;;1.50;;
74465;SDS011;62916;50.044;15.938;2024-02-23T12:08:21;9.50;;;1.40;;
74465;SDS011;62916;50.044;15.938;2024-02-23T12:10:54;10.60;;;1.70;;
74465;SDS011;62916;50.044;15.938;2024-02-23T12:13:28;7.90;;;1.50;;
74465;SDS011;62916;50.044;15.938;2024-02-23T12:16:00;5.90;;;1.20;;
74465;SDS011;62916;50.044;15.938;2024-02-23T12:18:31;9.70;;;1.80;;
74465;SDS011;62916;50.044;15.938;2024-02-23T12:21:04;8.20;;;1.40;;
74465;SDS011;62916;50.044;15.938;2024-02-23T12:23:40;5.90;;;1.50;;
74465;SDS011;62916;50.044;15.938;2024-02-23T12:26:14;8.10;;;1.20;;
74465;SDS011;62916;50.044;15.938;2024-02-23T12:28:45;6.10;;;1.00;;
74465;SDS011;62916;50.044;15.938;2024-02-23T12:31:16;8.30;;;2.10;;
74465;SDS011;62916;50.044;15.938;2024-02-23T12:33:55;7.30;;;1.00;;
74465;SDS011;62916;50.044;15.938;2024-02-23T12:36:28;6.30;;;1.30;;
74465;SDS011;62916;50.044;15.938;2024-02-23T12:39:03;9.00;;;1.30;;
74465;SDS011;62916;50.044;15.938;2024-02-23T12:41:34;7.10;;;1.20;;
74465;SDS011;62916;50.044;15.938;2024-02-23T12:44:05;3.90;;;0.80;;
74465;SDS011;62916;50.044;15.938;2024-02-23T12:46:36;7.40;;;0.90;;
74465;SDS011;62916;50.044;15.938;2024-02-23T12:49:08;5.30;;;1.00;;
74465;SDS011;62916;50.044;15.938;2024-02-23T12:51:39;4.70;;;1.30;;
74465;SDS011;62916;50.044;15.938;2024-02-23T12:54:10;3.80;;;1.20;;
74465;SDS011;62916;50.044;15.938;2024-02-23T12:56:41;3.80;;;1.20;;
74465;SDS011;62916;50.044;15.938;2024-02-23T12:59:13;5.40;;;0.90;;
74465;SDS011;62916;50.044;15.938;2024-02-23T13:01:44;4.80;;;1.00;;
74465;SDS011;62916;50.044;15.938;2024-02-23T13:04:19;5.00;;;0.90;;
74465;SDS011;62916;50.044;15.938;2024-02-23T13:06:50;4.40;;;1.70;;
74465;SDS011;62916;50.044;15.938;2024-02-23T13:09:22;4.70;;;1.20;;
74465;SDS011;62916;50.044;15.938;2024-02-23T13:11:53;3.90;;;1.20;;
74465;SDS011;62916;50.044;15.938;2024-02-23T13:14:25;4.70;;;0.60;;
74465;SDS011;62916;50.044;15.938;2024-02-23T13:16:56;6.40;;;1.10;;
74465;SDS011;62916;50.044;15.938;2024-02-23T13:19:27;5.50;;;0.90;;
74465;SDS011;62916;50.044;15.938;2024-02-23T13:21:59;4.80;;;0.90;;
74465;SDS011;62916;50.044;15.938;2024-02-23T13:24:30;3.40;;;0.80;;
74465;SDS011;62916;50.044;15.938;2024-02-23T13:27:01;3.10;;;0.70;;
74465;SDS011;62916;50.044;15.938;2024-02-23T13:29:32;1.40;;;0.70;;
74465;SDS011;62916;50.044;15.938;2024-02-23T13:32:03;3.30;;;0.60;;
74465;SDS011;62916;50.044;15.938;2024-02-23T13:34:39;4.60;;;0.90;;
74465;SDS011;62916;50.044;15.938;2024-02-23T13:37:10;2.80;;;0.90;;
74465;SDS011;62916;50.044;15.938;2024-02-23T13:39:41;3.10;;;0.90;;
74465;SDS011;62916;50.044;15.938;2024-02-23T13:42:12;3.20;;;0.90;;
74465;SDS011;62916;50.044;15.938;2024-02-23T13:44:43;1.60;;;0.90;;
74465;SDS011;62916;50.044;15.938;2024-02-23T13:47:14;2.80;;;0.70;;
74465;SDS011;62916;50.044;15.938;2024-02-23T13:49:47;2.70;;;0.80;;
74465;SDS011;62916;50.044;15.938;2024-02-23T13:52:18;1.20;;;0.50;;
74465;SDS011;62916;50.044;15.938;2024-02-23T13:54:49;2.60;;;0.70;;
74465;SDS011;62916;50.044;15.938;2024-02-23T13:57:20;4.40;;;0.80;;
74465;SDS011;62916;50.044;15.938;2024-02-23T13:59:51;2.30;;;0.80;;
74465;SDS011;62916;50.044;15.938;2024-02-23T14:02:25;3.30;;;0.90;;
74465;SDS011;62916;50.044;15.938;2024-02-23T14:05:01;2.80;;;1.00;;
74465;SDS011;62916;50.044;15.938;2024-02-23T14:07:34;1.30;;;0.80;;
74465;SDS011;62916;50.044;15.938;2024-02-23T14:10:07;2.50;;;0.80;;
74465;SDS011;62916;50.044;15.938;2024-02-23T14:12:38;2.70;;;1.00;;
74465;SDS011;62916;50.044;15.938;2024-02-23T14:15:10;2.20;;;0.90;;
74465;SDS011;62916;50.044;15.938;2024-02-23T14:17:42;3.30;;;0.80;;
74465;SDS011;62916;50.044;15.938;2024-02-23T14:20:14;2.60;;;0.70;;
74465;SDS011;62916;50.044;15.938;2024-02-23T14:22:45;3.00;;;1.00;;
74465;SDS011;62916;50.044;15.938;2024-02-23T14:25:18;1.90;;;0.70;;
74465;SDS011;62916;50.044;15.938;2024-02-23T14:27:49;2.00;;;0.80;;
74465;SDS011;62916;50.044;15.938;2024-02-23T14:30:20;2.30;;;0.70;;
74465;SDS011;62916;50.044;15.938;2024-02-23T14:32:51;2.70;;;0.90;;
74465;SDS011;62916;50.044;15.938;2024-02-23T14:35:23;2.60;;;1.20;;
74465;SDS011;62916;50.044;15.938;2024-02-23T14:37:54;2.20;;;0.80;;
74465;SDS011;62916;50.044;15.938;2024-02-23T14:40:25;1.80;;;1.00;;
74465;SDS011;62916;50.044;15.938;2024-02-23T14:42:56;2.20;;;1.00;;
74465;SDS011;62916;50.044;15.938;2024-02-23T14:45:27;1.50;;;0.70;;
74465;SDS011;62916;50.044;15.938;2024-02-23T14:47:59;1.90;;;0.70;;
74465;SDS011;62916;50.044;15.938;2024-02-23T14:50:30;3.30;;;1.10;;
74465;SDS011;62916;50.044;15.938;2024-02-23T14:53:02;2.60;;;0.90;;
74465;SDS011;62916;50.044;15.938;2024-02-23T14:55:34;2.80;;;1.00;;
74465;SDS011;62916;50.044;15.938;2024-02-23T14:58:05;1.80;;;0.80;;
74465;SDS011;62916;50.044;15.938;2024-02-23T15:00:36;2.40;;;0.70;;